createdAt,value
2022-09-25T00:02:44.854Z,14.50
2022-09-25T00:07:46.783Z,14.50
2022-09-25T00:12:48.470Z,14.50
2022-09-25T00:17:50.470Z,16.20
2022-09-25T00:22:53.549Z,14.50
2022-09-25T00:27:55.785Z,14.50
2022-09-25T00:32:57.451Z,14.40
2022-09-25T00:37:59.110Z,14.50
2022-09-25T00:43:00.937Z,14.50
2022-09-25T00:48:07.406Z,14.40
2022-09-25T00:53:16.414Z,14.30
2022-09-25T00:58:22.861Z,14.40
2022-09-25T01:03:26.005Z,14.40
2022-09-25T01:08:29.674Z,14.40
2022-09-25T01:13:31.564Z,14.50
2022-09-25T01:19:18.126Z,14.40
2022-09-25T01:24:34.851Z,14.40
2022-09-25T01:29:42.512Z,14.40
2022-09-25T01:35:04.852Z,14.40
2022-09-25T01:40:18.624Z,14.40
2022-09-25T01:45:29.745Z,14.40
2022-09-25T01:50:47.823Z,14.40
2022-09-25T01:55:56.832Z,14.40
2022-09-25T02:01:04.331Z,14.40
2022-09-25T02:06:10.161Z,14.40
2022-09-25T02:11:12.580Z,14.40
2022-09-25T02:16:20.630Z,14.50
2022-09-25T02:21:50.654Z,14.50
2022-09-25T02:26:52.838Z,14.40
2022-09-25T02:31:59.759Z,14.40
2022-09-25T02:37:01.522Z,14.50
2022-09-25T02:42:15.063Z,14.40
2022-09-25T02:47:43.397Z,14.40
2022-09-25T02:53:07.136Z,14.40
2022-09-25T02:58:40.873Z,14.30
2022-09-25T03:03:45.709Z,14.30
2022-09-25T03:08:52.034Z,14.30
2022-09-25T03:13:58.842Z,14.40
2022-09-25T03:19:02.184Z,14.30
2022-09-25T03:24:04.564Z,14.30
2022-09-25T03:29:06.403Z,14.30
2022-09-25T03:34:08.545Z,14.40
2022-09-25T03:39:15.093Z,14.40
2022-09-25T03:44:17.267Z,14.40
2022-09-25T03:49:18.967Z,14.40
2022-09-25T03:54:20.638Z,14.40
2022-09-25T03:59:22.350Z,13.90
2022-09-25T04:04:24.092Z,14.30
2022-09-25T04:09:25.932Z,14.30
2022-09-25T04:14:27.641Z,14.30
2022-09-25T04:19:29.332Z,14.30
2022-09-25T04:24:49.051Z,14.40
2022-09-25T04:29:50.885Z,14.40
2022-09-25T04:34:53.172Z,14.30
2022-09-25T04:39:56.199Z,14.30
2022-09-25T04:44:58.441Z,14.30
2022-09-25T04:50:00.251Z,14.30
2022-09-25T04:55:03.602Z,14.30
2022-09-25T05:00:06.932Z,14.30
2022-09-25T05:05:09.021Z,14.30
2022-09-25T05:10:10.726Z,14.30
2022-09-25T05:15:12.393Z,14.40
2022-09-25T05:20:14.231Z,14.40
2022-09-25T05:25:15.969Z,14.30
2022-09-25T05:30:17.801Z,14.40
2022-09-25T05:35:24.101Z,14.30
2022-09-25T05:40:26.238Z,14.10
2022-09-25T05:45:28.115Z,14.20
2022-09-25T05:50:31.597Z,14.10
2022-09-25T05:55:33.734Z,14.30
2022-09-25T06:00:35.470Z,14.30
2022-09-25T06:05:37.328Z,14.20
2022-09-25T06:10:40.447Z,14.30
2022-09-25T06:15:42.258Z,14.30
2022-09-25T06:20:44.092Z,14.30
2022-09-25T06:25:46.117Z,14.30
2022-09-25T06:30:48.094Z,14.30
2022-09-25T06:35:50.328Z,14.40
2022-09-25T06:40:52.847Z,14.10
2022-09-25T06:45:54.746Z,14.20
2022-09-25T06:50:58.757Z,14.40
2022-09-25T06:56:00.885Z,14.40
2022-09-25T07:01:06.386Z,14.50
2022-09-25T07:06:20.750Z,14.50
2022-09-25T07:11:23.965Z,14.40
2022-09-25T07:16:30.588Z,14.50
2022-09-25T07:21:32.672Z,14.70
2022-09-25T07:26:34.645Z,14.80
2022-09-25T07:31:39.191Z,14.80
2022-09-25T07:36:42.725Z,14.60
2022-09-25T07:41:44.466Z,14.50
2022-09-25T07:46:46.706Z,14.50
2022-09-25T07:51:48.525Z,14.60
2022-09-25T07:56:50.216Z,14.50
2022-09-25T08:01:54.176Z,14.80
2022-09-25T08:06:58.047Z,14.60
2022-09-25T08:11:59.772Z,14.70
2022-09-25T08:17:01.495Z,14.90
2022-09-25T08:22:03.331Z,14.90
2022-09-25T08:27:05.670Z,14.90
2022-09-25T08:32:07.501Z,14.50
2022-09-25T08:37:10.261Z,14.50
2022-09-25T08:42:24.368Z,14.50
2022-09-25T08:47:46.830Z,14.60
2022-09-25T08:52:55.305Z,14.60
2022-09-25T08:57:57.174Z,14.50
2022-09-25T09:02:59.540Z,14.70
2022-09-25T09:08:07.412Z,14.80
2022-09-25T09:13:41.291Z,14.80
2022-09-25T09:18:43.865Z,17.30
2022-09-25T09:24:03.653Z,15.30
2022-09-25T09:29:23.959Z,15.40
2022-09-25T09:35:04.682Z,15.50
2022-09-25T09:40:16.485Z,15.30
2022-09-25T09:45:44.284Z,15.20
2022-09-25T09:50:53.154Z,14.80
2022-09-25T09:56:06.395Z,14.80
2022-09-25T10:01:39.888Z,15.10
2022-09-25T10:06:38.418Z,15.30
2022-09-25T10:11:40.852Z,15.30
2022-09-25T10:16:43.299Z,15.90
2022-09-25T10:21:57.701Z,15.90
2022-09-25T10:27:22.269Z,16.30
2022-09-25T10:32:24.045Z,16.20
2022-09-25T10:37:34.849Z,15.70
2022-09-25T10:42:41.096Z,15.50
2022-09-25T10:48:04.102Z,15.70
2022-09-25T10:53:07.537Z,15.70
2022-09-25T10:58:22.679Z,15.60
2022-09-25T11:03:30.244Z,15.50
2022-09-25T11:08:38.031Z,15.80
2022-09-25T11:13:55.362Z,15.80
2022-09-25T11:19:12.276Z,15.90
2022-09-25T11:24:40.666Z,15.60
2022-09-25T11:30:21.836Z,15.50
2022-09-25T11:35:57.160Z,15.60
2022-09-25T11:41:12.624Z,15.90
2022-09-25T11:46:21.071Z,16.10
2022-09-25T11:51:35.950Z,16.70
2022-09-25T11:56:50.127Z,16.40
2022-09-25T12:02:04.542Z,16.40
2022-09-25T12:07:24.253Z,16.10
2022-09-25T12:12:42.721Z,16.10
2022-09-25T12:17:56.236Z,16.10
2022-09-25T12:23:35.892Z,17.50
2022-09-25T12:29:11.813Z,17.40
2022-09-25T12:34:50.859Z,17.40
2022-09-25T12:40:05.943Z,16.90
2022-09-25T12:45:58.775Z,16.40
2022-09-25T12:51:06.971Z,16.40
2022-09-25T12:56:22.025Z,16.90
2022-09-25T13:01:47.873Z,17.20
2022-09-25T13:07:00.438Z,17.20
2022-09-25T13:12:10.964Z,17.10
2022-09-25T13:17:13.777Z,16.60
2022-09-25T13:22:25.026Z,17.70
2022-09-25T13:27:35.328Z,20.20
2022-09-25T13:32:47.752Z,20.30
2022-09-25T13:37:56.048Z,19.80
2022-09-25T13:43:38.217Z,19.30
2022-09-25T13:48:40.601Z,18.70
2022-09-25T13:54:08.975Z,18.20
2022-09-25T13:59:12.373Z,17.50
2022-09-25T14:04:14.226Z,17.20
2022-09-25T14:09:19.826Z,17.00
2022-09-25T14:14:34.747Z,17.30
2022-09-25T14:19:41.383Z,20.40
2022-09-25T14:24:45.355Z,22.30
2022-09-25T14:29:47.507Z,20.90
2022-09-25T14:35:21.896Z,20.00
2022-09-25T14:40:36.415Z,18.50
2022-09-25T14:45:56.983Z,17.50
2022-09-25T14:51:07.477Z,17.10
2022-09-25T14:56:12.538Z,16.90
2022-09-25T15:01:29.545Z,16.70
2022-09-25T15:06:36.692Z,16.30
2022-09-25T15:11:41.271Z,16.20
2022-09-25T15:17:06.587Z,16.10
2022-09-25T15:22:11.677Z,16.10
2022-09-25T15:27:16.279Z,16.10
2022-09-25T15:32:25.897Z,16.20
2022-09-25T15:37:31.002Z,16.40
2022-09-25T15:42:33.314Z,16.40
2022-09-25T15:47:35.072Z,16.30
2022-09-25T15:52:38.432Z,16.30
2022-09-25T15:57:41.566Z,16.00
2022-09-25T16:03:20.239Z,16.10
2022-09-25T16:08:24.732Z,15.90
2022-09-25T16:13:27.443Z,15.80
2022-09-25T16:18:32.793Z,15.90
2022-09-25T16:23:35.091Z,15.80
2022-09-25T16:28:37.446Z,15.80
2022-09-25T16:33:49.269Z,15.80
2022-09-25T16:39:14.347Z,15.70
2022-09-25T16:44:21.705Z,15.60
2022-09-25T16:49:24.968Z,15.60
2022-09-25T16:54:31.758Z,15.50
2022-09-25T16:59:33.615Z,15.40
2022-09-25T17:04:38.801Z,15.30
2022-09-25T17:09:40.548Z,15.30
2022-09-25T17:14:42.565Z,14.80
2022-09-25T17:19:44.403Z,15.10
2022-09-25T17:24:46.207Z,15.00
2022-09-25T17:29:48.253Z,15.00
2022-09-25T17:34:50.253Z,15.00
2022-09-25T17:39:52.113Z,15.00
2022-09-25T17:44:54.236Z,14.90
2022-09-25T17:49:57.644Z,14.80
2022-09-25T17:54:59.570Z,14.70
2022-09-25T18:00:01.501Z,14.70
2022-09-25T18:05:03.723Z,14.70
2022-09-25T18:10:06.025Z,14.70
2022-09-25T18:15:08.473Z,14.70
2022-09-25T18:20:31.842Z,14.70
2022-09-25T18:25:36.177Z,14.70
2022-09-25T18:30:38.682Z,14.70
2022-09-25T18:35:42.911Z,14.60
2022-09-25T18:40:45.045Z,14.70
2022-09-25T18:45:52.904Z,14.70
2022-09-25T18:50:54.727Z,14.60
2022-09-25T18:55:59.673Z,14.70
2022-09-25T19:01:01.995Z,14.60
2022-09-25T19:06:04.446Z,14.60
2022-09-25T19:11:14.414Z,14.60
2022-09-25T19:16:17.476Z,14.50
2022-09-25T19:21:24.201Z,14.40
2022-09-25T19:26:26.003Z,14.40
2022-09-25T19:31:28.563Z,14.50
2022-09-25T19:36:32.855Z,14.50
2022-09-25T19:41:36.551Z,14.50
2022-09-25T19:46:40.288Z,14.50
2022-09-25T19:51:43.165Z,14.50
2022-09-25T19:56:46.235Z,14.40
2022-09-25T20:01:48.287Z,14.40
2022-09-25T20:06:50.117Z,14.40
2022-09-25T20:11:52.003Z,14.40
2022-09-25T20:16:55.122Z,14.40
2022-09-25T20:21:56.918Z,14.40
2022-09-25T20:26:58.874Z,14.40
2022-09-25T20:32:00.953Z,14.30
2022-09-25T20:37:03.670Z,14.30
2022-09-25T20:42:05.776Z,14.30
2022-09-25T20:47:07.511Z,14.30
2022-09-25T20:52:10.050Z,14.30
2022-09-25T20:57:11.987Z,14.30
2022-09-25T21:02:13.988Z,14.20
2022-09-25T21:07:17.163Z,14.20
2022-09-25T21:12:19.340Z,14.20
2022-09-25T21:17:21.075Z,14.20
2022-09-25T21:22:22.911Z,13.90
2022-09-25T21:27:24.657Z,13.90
2022-09-25T21:32:28.518Z,14.00
2022-09-25T21:37:30.347Z,14.00
2022-09-25T21:42:32.135Z,13.90
2022-09-25T21:47:33.924Z,13.90
2022-09-25T21:52:38.303Z,13.90
2022-09-25T21:57:40.097Z,13.90
2022-09-25T22:02:42.038Z,13.90
2022-09-25T22:07:43.895Z,13.90
2022-09-25T22:12:45.565Z,13.90
2022-09-25T22:17:47.411Z,13.90
2022-09-25T22:22:49.384Z,13.90
2022-09-25T22:27:51.095Z,13.70
2022-09-25T22:32:52.795Z,13.80
2022-09-25T22:37:54.520Z,13.80
2022-09-25T22:43:00.376Z,13.80
2022-09-25T22:48:02.321Z,13.80
2022-09-25T22:53:04.268Z,13.80
2022-09-25T22:58:06.018Z,13.70
2022-09-25T23:03:07.784Z,13.60
2022-09-25T23:08:09.895Z,13.60
2022-09-25T23:13:11.703Z,13.60
2022-09-25T23:18:13.428Z,13.50
2022-09-25T23:23:16.292Z,13.30
2022-09-25T23:28:18.038Z,13.20
2022-09-25T23:33:19.746Z,13.30
2022-09-25T23:38:21.503Z,13.20
2022-09-25T23:43:23.384Z,13.20
2022-09-25T23:48:25.152Z,13.40
2022-09-25T23:53:27.138Z,13.30
2022-09-25T23:58:30.825Z,13.30
